Time;durP1;ratioP1;P1;durP2;ratioP2;P2;SDS_P1;SDS_P2;PMS_P1;PMS_P2;Temp;Humidity;BMP_temperature;BMP_pressure;BME280_temperature;BME280_humidity;BME280_pressure;Samples;Min_cycle;Max_cycle;Signal;HPM_P1;HPM_P2
2023/09/28 00:01:18;;;;;;;1.67;1.58;;;18.50;99.90;;;;;;4974055;28;20458;-86
2023/09/28 00:03:45;;;;;;;1.88;1.77;;;18.60;99.90;;;;;;4972143;28;20077;-87
2023/09/28 00:06:11;;;;;;;1.60;1.50;;;18.70;99.90;;;;;;4957073;28;20510;-85
2023/09/28 00:08:37;;;;;;;1.63;1.52;;;18.70;99.90;;;;;;4970946;28;20046;-85
2023/09/28 00:11:04;;;;;;;1.80;1.70;;;18.70;99.90;;;;;;4976974;28;20053;-85
2023/09/28 00:13:29;;;;;;;1.83;1.73;;;18.70;99.90;;;;;;4973740;28;20080;-87
2023/09/28 00:15:55;;;;;;;1.67;1.58;;;18.60;99.90;;;;;;4954582;28;20063;-86
2023/09/28 00:18:23;;;;;;;1.63;1.52;;;18.70;99.90;;;;;;4969151;28;20125;-86
2023/09/28 00:20:49;;;;;;;1.67;1.58;;;18.70;99.90;;;;;;4975706;28;20054;-85
2023/09/28 00:23:17;;;;;;;1.90;1.80;;;18.70;99.90;;;;;;4977409;28;20120;-84
2023/09/28 00:25:43;;;;;;;2.10;2.00;;;18.70;99.90;;;;;;4980025;28;20060;-85
2023/09/28 00:28:10;;;;;;;1.77;1.67;;;18.60;99.90;;;;;;4976720;28;20116;-84
2023/09/28 00:30:36;;;;;;;1.73;1.63;;;18.50;99.90;;;;;;4990106;28;20511;-85
2023/09/28 00:33:02;;;;;;;1.60;1.50;;;18.50;99.90;;;;;;4987187;28;20046;-86
2023/09/28 00:35:28;;;;;;;1.65;1.55;;;18.70;99.90;;;;;;4982418;28;20050;-85
2023/09/28 00:37:54;;;;;;;1.77;1.67;;;18.80;99.90;;;;;;4973374;28;20054;-86
2023/09/28 00:40:31;;;;;;;1.77;1.67;;;18.90;99.90;;;;;;4980181;28;20045;-86
2023/09/28 00:42:58;;;;;;;1.63;1.52;;;18.90;99.90;;;;;;4977078;28;20620;-85
2023/09/28 00:45:26;;;;;;;1.75;1.65;;;18.90;99.90;;;;;;4976780;28;20056;-84
2023/09/28 00:47:55;;;;;;;1.70;1.60;;;18.80;99.90;;;;;;4962719;28;20416;-85
2023/09/28 00:50:21;;;;;;;1.65;1.55;;;18.70;99.90;;;;;;4979567;28;20073;-86
2023/09/28 00:52:55;;;;;;;1.77;1.67;;;18.70;99.90;;;;;;4961986;28;20641;-85
2023/09/28 00:55:22;;;;;;;;;;;18.60;99.90;;;;;;4974629;28;20647;-86
2023/09/28 00:57:48;;;;;;;1.92;1.83;;;18.60;99.90;;;;;;4985024;28;20483;-84
2023/09/28 01:00:28;;;;;;;1.70;1.60;;;18.60;99.90;;;;;;4972752;28;20069;-86
2023/09/28 01:02:56;;;;;;;1.10;1.10;;;18.60;99.90;;;;;;4976968;28;20100;-85
2023/09/28 01:05:27;;;;;;;1.20;1.20;;;18.50;99.90;;;;;;4976849;28;20050;-84
2023/09/28 01:07:53;;;;;;;1.30;1.30;;;18.60;99.90;;;;;;4963501;28;20504;-86
2023/09/28 01:10:25;;;;;;;1.30;1.30;;;18.60;99.90;;;;;;4982607;28;20049;-85
2023/09/28 01:12:51;;;;;;;1.10;1.10;;;18.60;99.90;;;;;;4981307;28;20049;-87
2023/09/28 01:15:17;;;;;;;1.20;1.20;;;18.60;99.90;;;;;;4977978;28;20049;-86
2023/09/28 01:17:43;;;;;;;1.20;1.20;;;18.60;99.90;;;;;;4978999;28;20397;-87
2023/09/28 01:20:17;;;;;;;1.20;1.20;;;18.60;99.90;;;;;;4979009;28;20045;-86
2023/09/28 01:22:49;;;;;;;1.20;1.20;;;18.60;99.90;;;;;;4976599;28;20054;-85
2023/09/28 01:25:15;;;;;;;1.20;1.20;;;18.60;99.90;;;;;;4977713;28;20404;-88
2023/09/28 01:27:47;;;;;;;1.30;1.30;;;18.60;99.90;;;;;;4974079;28;20427;-87
2023/09/28 01:30:14;;;;;;;1.20;1.20;;;18.60;99.90;;;;;;4980179;28;20042;-86
2023/09/28 01:32:40;;;;;;;1.20;1.20;;;18.60;99.90;;;;;;4979168;28;20034;-88
2023/09/28 01:35:07;;;;;;;1.13;1.13;;;18.70;99.90;;;;;;4977480;28;20050;-89
2023/09/28 01:37:38;;;;;;;1.30;1.30;;;18.70;99.90;;;;;;4976522;28;20538;-88
2023/09/28 01:40:05;;;;;;;1.23;1.23;;;18.70;99.90;;;;;;4979292;28;20546;-85
2023/09/28 01:42:31;;;;;;;1.20;1.20;;;18.70;99.90;;;;;;4980838;28;20125;-87
2023/09/28 01:44:56;;;;;;;1.15;1.15;;;18.70;99.90;;;;;;4982549;28;20129;-86
2023/09/28 01:47:22;;;;;;;1.10;1.10;;;18.70;99.90;;;;;;4960664;28;20042;-87
2023/09/28 01:49:50;;;;;;;1.20;1.20;;;18.70;99.90;;;;;;4963426;28;20576;-86
2023/09/28 01:52:16;;;;;;;1.30;1.30;;;18.70;99.90;;;;;;4971580;28;20077;-87
2023/09/28 01:54:41;;;;;;;1.20;1.20;;;18.70;99.90;;;;;;4961836;28;20093;-88
2023/09/28 01:57:07;;;;;;;1.80;1.70;;;18.70;99.90;;;;;;4985296;28;20057;-85
2023/09/28 01:59:33;;;;;;;1.52;1.42;;;18.70;99.90;;;;;;4982413;28;20077;-85
2023/09/28 02:01:58;;;;;;;1.63;1.52;;;18.80;99.90;;;;;;4980402;28;20047;-86
2023/09/28 02:04:25;;;;;;;1.20;1.20;;;18.70;99.90;;;;;;4978138;28;20046;-86
2023/09/28 02:06:50;;;;;;;1.30;1.30;;;18.60;99.90;;;;;;4980100;28;20480;-88
2023/09/28 02:09:17;;;;;;;1.10;1.10;;;18.60;99.90;;;;;;4983190;28;20104;-87
2023/09/28 02:11:43;;;;;;;1.50;1.40;;;18.50;99.90;;;;;;4964679;28;20053;-89
2023/09/28 02:14:11;;;;;;;1.20;1.20;;;18.50;99.90;;;;;;4982096;28;20041;-87
2023/09/28 02:16:37;;;;;;;1.20;1.20;;;18.50;99.90;;;;;;4972771;28;20502;-87
2023/09/28 02:19:04;;;;;;;1.20;1.20;;;18.50;99.90;;;;;;4979147;28;20045;-92
2023/09/28 02:21:29;;;;;;;1.10;1.10;;;18.40;99.90;;;;;;4979193;28;20046;-91
2023/09/28 02:23:56;;;;;;;1.17;1.17;;;18.40;99.90;;;;;;4961969;28;20047;-85
2023/09/28 02:26:22;;;;;;;1.10;1.10;;;18.50;99.90;;;;;;4983308;28;20038;-87
2023/09/28 02:28:48;;;;;;;1.10;1.10;;;18.40;99.90;;;;;;4977806;28;20127;-86
2023/09/28 02:31:14;;;;;;;1.10;1.10;;;18.40;99.90;;;;;;4977292;28;20050;-86
2023/09/28 02:33:39;;;;;;;1.10;1.10;;;18.40;99.90;;;;;;4979435;28;20048;-87
2023/09/28 02:36:05;;;;;;;1.20;1.20;;;18.40;99.90;;;;;;4979695;28;20047;-86
2023/09/28 02:38:31;;;;;;;1.10;1.10;;;18.30;99.90;;;;;;4979632;28;20783;-89
2023/09/28 02:40:56;;;;;;;1.10;1.10;;;18.30;99.90;;;;;;4972320;28;20050;-86
2023/09/28 02:43:22;;;;;;;1.20;1.20;;;18.30;99.90;;;;;;4976637;28;20042;-86
2023/09/28 02:45:48;;;;;;;1.08;1.08;;;18.30;99.90;;;;;;4978800;28;20046;-85
2023/09/28 02:48:13;;;;;;;1.10;1.10;;;18.20;99.90;;;;;;4980442;28;20046;-88
2023/09/28 02:50:39;;;;;;;1.10;1.10;;;18.20;99.90;;;;;;4964874;28;20069;-87
2023/09/28 02:53:07;;;;;;;1.10;1.10;;;18.10;99.90;;;;;;4960706;28;20042;-86
2023/09/28 02:55:32;;;;;;;1.00;1.00;;;18.10;99.90;;;;;;4980982;28;20042;-90
2023/09/28 02:57:58;;;;;;;1.00;1.00;;;18.10;99.90;;;;;;4965667;28;20101;-87
2023/09/28 03:00:32;;;;;;;1.00;1.00;;;18.10;99.90;;;;;;4966903;28;20093;-89
2023/09/28 03:03:00;;;;;;;;;;;18.00;99.90;;;;;;4997558;28;20042;-91
2023/09/28 03:05:28;;;;;;;1.30;1.30;;;18.00;99.90;;;;;;4960362;28;19928;-86
2023/09/28 03:07:54;;;;;;;1.20;1.20;;;18.00;99.90;;;;;;4979130;28;20046;-87
2023/09/28 03:10:20;;;;;;;1.20;1.20;;;17.90;99.90;;;;;;4978987;28;20168;-85
2023/09/28 03:12:47;;;;;;;1.30;1.30;;;17.90;99.90;;;;;;4992621;28;20125;-86
2023/09/28 03:15:13;;;;;;;1.20;1.20;;;17.80;99.90;;;;;;4964443;28;20049;-88
2023/09/28 03:17:40;;;;;;;1.20;1.20;;;17.90;99.90;;;;;;4977666;28;20466;-86
2023/09/28 03:20:13;;;;;;;1.20;1.20;;;17.80;99.90;;;;;;4977277;28;20041;-88
2023/09/28 03:22:38;;;;;;;1.20;1.20;;;17.80;99.90;;;;;;4976821;28;20132;-85
2023/09/28 03:25:10;;;;;;;1.30;1.30;;;17.80;99.90;;;;;;4974009;28;20149;-85
2023/09/28 03:27:36;;;;;;;1.17;1.17;;;17.80;99.90;;;;;;4982756;28;20054;-89
2023/09/28 03:30:06;;;;;;;1.20;1.20;;;17.80;99.90;;;;;;4974579;28;20455;-88
2023/09/28 03:32:32;;;;;;;1.20;1.20;;;17.80;99.90;;;;;;4963532;28;20420;-85
2023/09/28 03:34:57;;;;;;;1.27;1.27;;;17.90;99.90;;;;;;4974919;28;20046;-89
2023/09/28 03:37:23;;;;;;;1.45;1.35;;;17.90;99.90;;;;;;4967988;28;20701;-85
2023/09/28 03:39:52;;;;;;;1.20;1.20;;;17.80;99.90;;;;;;4963128;28;20530;-89
2023/09/28 03:42:17;;;;;;;1.23;1.23;;;17.80;99.90;;;;;;4959848;28;20061;-86
2023/09/28 03:44:46;;;;;;;1.20;1.20;;;17.80;99.90;;;;;;4973743;28;20492;-87
2023/09/28 03:47:11;;;;;;;1.20;1.20;;;17.70;99.90;;;;;;4984735;28;20038;-88
2023/09/28 03:49:37;;;;;;;1.23;1.23;;;17.70;99.90;;;;;;4959694;28;20058;-86
2023/09/28 03:52:03;;;;;;;1.45;1.38;;;17.80;99.90;;;;;;4979494;28;20049;-86
2023/09/28 03:54:29;;;;;;;1.35;1.33;;;17.70;99.90;;;;;;4981314;28;20131;-89
2023/09/28 03:56:55;;;;;;;1.20;1.20;;;17.60;99.90;;;;;;4973377;28;20081;-86
2023/09/28 03:59:21;;;;;;;1.08;1.08;;;17.70;99.90;;;;;;4982043;28;20402;-90
2023/09/28 04:01:48;;;;;;;1.20;1.20;;;17.60;99.90;;;;;;4983199;28;20050;-85
2023/09/28 04:04:13;;;;;;;1.20;1.20;;;17.70;99.90;;;;;;4976930;28;20046;-85
2023/09/28 04:06:39;;;;;;;1.23;1.23;;;17.60;99.90;;;;;;4979054;28;20087;-86
2023/09/28 04:09:07;;;;;;;1.20;1.20;;;17.60;99.90;;;;;;4979702;28;20077;-87
2023/09/28 04:11:34;;;;;;;1.20;1.20;;;17.60;99.90;;;;;;4979834;28;20060;-86
2023/09/28 04:14:03;;;;;;;1.20;1.20;;;17.50;99.90;;;;;;4978722;28;20046;-86
2023/09/28 04:16:29;;;;;;;1.20;1.20;;;17.30;99.90;;;;;;4958147;28;20057;-86
2023/09/28 04:18:54;;;;;;;1.20;1.20;;;17.20;99.90;;;;;;4978017;28;21993;-85
2023/09/28 04:21:20;;;;;;;1.20;1.20;;;17.30;99.90;;;;;;4978631;28;20368;-86
2023/09/28 04:23:45;;;;;;;1.30;1.30;;;17.20;99.90;;;;;;4977908;28;20055;-84
2023/09/28 04:26:11;;;;;;;1.25;1.25;;;17.10;99.90;;;;;;4985764;28;20595;-85
2023/09/28 04:28:40;;;;;;;1.38;1.30;;;17.20;99.90;;;;;;4976494;28;20065;-89
2023/09/28 04:31:05;;;;;;;1.30;1.30;;;17.10;99.90;;;;;;4963453;28;20050;-84
2023/09/28 04:33:31;;;;;;;1.30;1.30;;;17.20;99.90;;;;;;4977931;28;20080;-82
2023/09/28 04:35:57;;;;;;;1.35;1.33;;;17.20;99.90;;;;;;4973290;28;20056;-83
2023/09/28 04:38:22;;;;;;;1.30;1.30;;;17.20;99.90;;;;;;4977156;28;20053;-81
2023/09/28 04:40:48;;;;;;;1.20;1.20;;;17.10;99.90;;;;;;4978081;28;20055;-83
2023/09/28 04:43:14;;;;;;;1.20;1.20;;;17.10;99.90;;;;;;4969852;28;21567;-82
2023/09/28 04:45:42;;;;;;;1.20;1.20;;;17.10;99.90;;;;;;4971078;28;20052;-85
2023/09/28 04:48:08;;;;;;;1.25;1.25;;;17.20;99.90;;;;;;4950291;28;20145;-84
2023/09/28 04:50:33;;;;;;;1.20;1.20;;;17.20;99.90;;;;;;4970066;28;20108;-85
2023/09/28 04:52:59;;;;;;;1.20;1.20;;;17.10;99.90;;;;;;4956596;28;20125;-84
2023/09/28 04:55:25;;;;;;;1.30;1.30;;;17.20;99.90;;;;;;4966546;28;20069;-85
2023/09/28 04:57:52;;;;;;;1.20;1.20;;;17.10;99.90;;;;;;4976320;28;20042;-85
2023/09/28 05:00:18;;;;;;;1.13;1.13;;;17.20;99.90;;;;;;4971145;28;20050;-84
2023/09/28 05:02:47;;;;;;;1.20;1.20;;;17.00;99.90;;;;;;4972968;28;20050;-86
2023/09/28 05:05:13;;;;;;;1.20;1.20;;;16.90;99.90;;;;;;4975272;28;20092;-86
2023/09/28 05:07:39;;;;;;;1.10;1.10;;;17.00;99.90;;;;;;4974463;28;20810;-85
2023/09/28 05:10:05;;;;;;;1.13;1.13;;;16.90;99.90;;;;;;4963924;28;20046;-86
2023/09/28 05:12:34;;;;;;;1.10;1.10;;;16.90;99.90;;;;;;4967243;28;20081;-86
2023/09/28 05:15:01;;;;;;;1.10;1.10;;;17.00;99.90;;;;;;4951384;28;20108;-85
2023/09/28 05:17:29;;;;;;;1.08;1.08;;;16.90;99.90;;;;;;4968801;28;20139;-84
2023/09/28 05:19:55;;;;;;;1.10;1.10;;;16.80;99.90;;;;;;4978033;28;20108;-84
2023/09/28 05:22:20;;;;;;;1.20;1.20;;;16.70;99.90;;;;;;4972196;28;20050;-89
2023/09/28 05:24:46;;;;;;;1.13;1.13;;;16.70;99.90;;;;;;4978679;28;20046;-87
2023/09/28 05:27:12;;;;;;;1.00;1.00;;;16.70;99.90;;;;;;4973602;28;20080;-87
2023/09/28 05:29:37;;;;;;;1.02;1.02;;;16.70;99.90;;;;;;4981602;28;20045;-84
2023/09/28 05:32:05;;;;;;;1.13;1.13;;;16.80;99.90;;;;;;4971331;28;20042;-85
2023/09/28 05:34:31;;;;;;;1.10;1.10;;;16.80;99.90;;;;;;4980010;28;20053;-86
2023/09/28 05:36:56;;;;;;;1.10;1.10;;;16.60;99.90;;;;;;4977530;28;20056;-84
2023/09/28 05:39:22;;;;;;;1.05;1.05;;;16.60;99.90;;;;;;4994214;28;20419;-86
2023/09/28 05:41:48;;;;;;;1.10;1.10;;;16.70;99.90;;;;;;4979454;28;20080;-84
2023/09/28 05:44:14;;;;;;;1.10;1.10;;;16.50;99.90;;;;;;4983101;28;20092;-85
2023/09/28 05:46:40;;;;;;;1.10;1.10;;;16.40;99.90;;;;;;4981107;28;20042;-83
2023/09/28 05:49:06;;;;;;;1.05;1.05;;;16.50;99.90;;;;;;4975227;28;20467;-84
2023/09/28 05:51:31;;;;;;;1.05;1.05;;;16.50;99.90;;;;;;4979051;28;20080;-84
2023/09/28 05:53:57;;;;;;;1.10;1.10;;;16.50;99.90;;;;;;4973833;28;20497;-86
2023/09/28 05:56:22;;;;;;;1.10;1.10;;;16.70;99.90;;;;;;4972172;28;20582;-84
2023/09/28 05:58:48;;;;;;;1.00;1.00;;;16.70;99.90;;;;;;4976021;28;20093;-83
2023/09/28 06:01:17;;;;;;;1.00;1.00;;;16.90;99.90;;;;;;4975321;28;20116;-84
2023/09/28 06:03:48;;;;;;;1.08;1.08;;;16.90;99.90;;;;;;4976781;28;20081;-95
2023/09/28 06:06:18;;;;;;;1.02;1.02;;;17.00;99.90;;;;;;4982261;28;20060;-85
2023/09/28 06:08:46;;;;;;;1.05;1.05;;;17.20;99.90;;;;;;4980013;28;20048;-83
2023/09/28 06:11:13;;;;;;;1.17;1.17;;;17.30;99.90;;;;;;4982733;28;20046;-86
2023/09/28 06:13:43;;;;;;;1.05;1.05;;;17.40;99.90;;;;;;4984914;28;20050;-87
2023/09/28 06:16:12;;;;;;;1.17;1.17;;;17.50;99.90;;;;;;4975817;28;20054;-83
2023/09/28 06:18:39;;;;;;;1.10;1.10;;;17.60;99.90;;;;;;4978151;28;20088;-84
2023/09/28 06:21:04;;;;;;;1.05;1.05;;;17.50;99.90;;;;;;4961851;28;20042;-84
2023/09/28 06:23:30;;;;;;;1.02;1.02;;;17.70;99.90;;;;;;4982976;28;20129;-85
2023/09/28 06:25:56;;;;;;;1.05;1.05;;;17.70;99.90;;;;;;4983686;28;20136;-87
2023/09/28 06:28:25;;;;;;;1.02;1.02;;;17.80;99.90;;;;;;4981240;28;20049;-85
2023/09/28 06:30:54;;;;;;;1.10;1.10;;;17.90;99.90;;;;;;4982912;28;20052;-86
2023/09/28 06:33:22;;;;;;;1.00;1.00;;;17.90;99.90;;;;;;4981906;28;20124;-83
2023/09/28 06:35:48;;;;;;;1.10;1.10;;;18.00;99.90;;;;;;4983597;28;20085;-88
2023/09/28 06:38:13;;;;;;;1.00;1.00;;;18.10;99.90;;;;;;4980830;28;20069;-87
2023/09/28 06:40:42;;;;;;;1.00;1.00;;;18.10;99.90;;;;;;4967374;28;20080;-83
2023/09/28 06:43:08;;;;;;;0.80;0.80;;;18.20;99.90;;;;;;4983465;28;20050;-84
2023/09/28 06:45:34;;;;;;;0.82;0.82;;;18.20;99.90;;;;;;4983983;28;20046;-84
2023/09/28 06:48:00;;;;;;;0.80;0.80;;;18.10;99.90;;;;;;4983040;28;20464;-83
2023/09/28 06:50:27;;;;;;;0.90;0.90;;;18.20;99.90;;;;;;4985978;28;20050;-85
2023/09/28 06:52:53;;;;;;;0.80;0.80;;;18.30;99.90;;;;;;4981250;28;20490;-88
2023/09/28 06:55:23;;;;;;;0.80;0.80;;;18.20;99.90;;;;;;4979540;28;20058;-86
2023/09/28 06:57:52;;;;;;;0.70;0.70;;;18.20;99.90;;;;;;4985849;28;20053;-85
2023/09/28 07:00:18;;;;;;;0.82;0.82;;;18.40;99.90;;;;;;4978213;28;20045;-89
2023/09/28 07:02:47;;;;;;;0.80;0.80;;;18.40;99.90;;;;;;4983253;28;20415;-83
2023/09/28 07:05:14;;;;;;;0.80;0.80;;;18.40;99.90;;;;;;4983642;28;20563;-84
2023/09/28 07:07:41;;;;;;;0.70;0.70;;;18.50;99.90;;;;;;4963780;28;20121;-83
2023/09/28 07:10:10;;;;;;;0.68;0.68;;;18.60;99.90;;;;;;4997965;28;20088;-84
2023/09/28 07:12:35;;;;;;;0.60;0.60;;;18.60;99.90;;;;;;4983453;28;20133;-84
2023/09/28 07:15:06;;;;;;;0.60;0.60;;;18.70;99.90;;;;;;4981006;28;20050;-84
2023/09/28 07:17:36;;;;;;;0.70;0.70;;;18.80;99.90;;;;;;4983006;28;20096;-83
2023/09/28 07:20:03;;;;;;;0.70;0.70;;;18.90;99.90;;;;;;4983564;28;20060;-84
2023/09/28 07:22:29;;;;;;;0.60;0.60;;;18.90;99.90;;;;;;4982100;28;20077;-84
2023/09/28 07:24:55;;;;;;;0.70;0.70;;;19.00;99.90;;;;;;4967132;28;20159;-85
2023/09/28 07:27:32;;;;;;;0.68;0.68;;;19.00;99.90;;;;;;4983461;28;20045;-88
2023/09/28 07:29:59;;;;;;;0.70;0.70;;;19.10;99.90;;;;;;4972889;28;20545;-86
2023/09/28 07:32:29;;;;;;;0.60;0.60;;;19.10;99.90;;;;;;4983822;28;20053;-82
2023/09/28 07:34:54;;;;;;;0.70;0.70;;;19.20;99.90;;;;;;4987833;28;20053;-83
2023/09/28 07:37:21;;;;;;;0.63;0.63;;;19.20;99.90;;;;;;4983620;28;20050;-81
2023/09/28 07:39:46;;;;;;;0.68;0.68;;;19.30;99.90;;;;;;4986575;28;20501;-87
2023/09/28 07:42:13;;;;;;;0.68;0.68;;;19.20;99.90;;;;;;4971026;28;20049;-85
2023/09/28 07:44:40;;;;;;;0.70;0.70;;;19.30;99.90;;;;;;4986869;28;20061;-85
2023/09/28 07:47:08;;;;;;;0.70;0.70;;;19.40;99.90;;;;;;4982966;28;20111;-88
2023/09/28 07:49:33;;;;;;;0.70;0.70;;;19.40;99.90;;;;;;4985112;28;20220;-84
2023/09/28 07:52:00;;;;;;;0.70;0.70;;;19.50;99.90;;;;;;4989797;28;20145;-85
2023/09/28 07:54:26;;;;;;;0.70;0.70;;;19.60;99.90;;;;;;4987457;28;20043;-83
2023/09/28 07:56:51;;;;;;;0.70;0.70;;;19.70;99.90;;;;;;4981788;28;20053;-84
2023/09/28 07:59:17;;;;;;;0.68;0.68;;;19.80;99.90;;;;;;4997871;28;20041;-84
2023/09/28 08:01:52;;;;;;;0.70;0.70;;;19.90;99.90;;;;;;4977816;28;20077;-86
2023/09/28 08:04:17;;;;;;;0.60;0.60;;;20.00;99.90;;;;;;4974088;28;20166;-84
2023/09/28 08:06:43;;;;;;;0.63;0.63;;;19.90;99.90;;;;;;4979540;28;20065;-89
2023/09/28 08:09:13;;;;;;;0.70;0.70;;;20.00;99.90;;;;;;4978720;28;20497;-85
2023/09/28 08:11:42;;;;;;;0.60;0.60;;;20.00;99.90;;;;;;4982754;28;20057;-89
2023/09/28 08:14:12;;;;;;;0.68;0.68;;;20.10;99.90;;;;;;4985856;28;20045;-83
2023/09/28 08:16:38;;;;;;;0.60;0.60;;;20.20;99.90;;;;;;4982195;28;20054;-87
2023/09/28 08:19:05;;;;;;;0.60;0.60;;;20.20;99.90;;;;;;4985133;28;20076;-90
2023/09/28 08:21:30;;;;;;;0.63;0.63;;;20.30;99.90;;;;;;4981166;28;20137;-92
2023/09/28 08:23:56;;;;;;;0.60;0.60;;;20.30;99.90;;;;;;4965454;28;20128;-85
2023/09/28 08:26:22;;;;;;;0.60;0.60;;;20.40;99.90;;;;;;4985325;28;20448;-83
2023/09/28 08:28:47;;;;;;;0.70;0.70;;;20.40;99.90;;;;;;4987377;28;20034;-85
2023/09/28 08:31:13;;;;;;;0.60;0.60;;;20.50;99.90;;;;;;4984114;28;20050;-81
2023/09/28 08:33:39;;;;;;;0.60;0.60;;;20.60;99.90;;;;;;4984342;28;20076;-86
2023/09/28 08:36:08;;;;;;;0.50;0.50;;;20.70;99.90;;;;;;4984827;28;20051;-87
2023/09/28 08:38:34;;;;;;;0.50;0.50;;;21.10;99.90;;;;;;4963610;28;20045;-90
2023/09/28 08:41:00;;;;;;;0.50;0.50;;;21.00;99.90;;;;;;4985965;28;20042;-82
2023/09/28 08:43:39;;;;;;;0.60;0.60;;;21.20;99.90;;;;;;4985680;28;20042;-88
2023/09/28 08:46:10;;;;;;;0.60;0.60;;;21.00;99.90;;;;;;4988074;28;20101;-87
2023/09/28 08:48:40;;;;;;;0.60;0.60;;;20.90;99.90;;;;;;4987798;28;20164;-90
2023/09/28 08:51:09;;;;;;;0.60;0.60;;;20.80;99.90;;;;;;4963145;28;20054;-90
2023/09/28 08:53:38;;;;;;;0.60;0.60;;;20.90;99.90;;;;;;4964520;28;20056;-84
2023/09/28 08:56:05;;;;;;;0.70;0.70;;;20.80;99.90;;;;;;4986754;28;20056;-88
2023/09/28 08:58:37;;;;;;;0.60;0.60;;;20.80;99.90;;;;;;4986410;28;20050;-84
2023/09/28 09:01:06;;;;;;;0.60;0.60;;;20.80;99.90;;;;;;4984372;28;20049;-84
2023/09/28 09:03:33;;;;;;;0.60;0.60;;;20.80;99.90;;;;;;4986504;28;20046;-88
2023/09/28 09:06:04;;;;;;;0.60;0.60;;;20.80;99.90;;;;;;4987167;28;20050;-84
2023/09/28 09:08:35;;;;;;;0.60;0.60;;;20.90;99.90;;;;;;4978783;28;20046;-85
2023/09/28 09:11:01;;;;;;;0.63;0.63;;;21.20;99.90;;;;;;4980390;28;20712;-85
2023/09/28 09:13:26;;;;;;;0.55;0.55;;;21.10;99.90;;;;;;4983089;28;20042;-81
2023/09/28 09:15:52;;;;;;;0.57;0.57;;;21.00;99.90;;;;;;4981223;28;20054;-80
2023/09/28 09:18:18;;;;;;;0.50;0.50;;;21.20;99.90;;;;;;4984777;28;20045;-82
2023/09/28 09:20:46;;;;;;;0.60;0.60;;;21.20;99.90;;;;;;4968578;28;20054;-80
2023/09/28 09:23:16;;;;;;;0.60;0.60;;;21.30;99.90;;;;;;4982716;28;20084;-82
2023/09/28 09:25:44;;;;;;;0.60;0.60;;;21.40;99.90;;;;;;4983576;28;20060;-83
2023/09/28 09:28:34;;;;;;;0.60;0.60;;;21.40;99.90;;;;;;4993869;28;20046;-80
2023/09/28 09:31:01;;;;;;;0.70;0.70;;;21.10;99.90;;;;;;4965583;28;20461;-86
2023/09/28 09:33:29;;;;;;;0.70;0.70;;;21.20;99.90;;;;;;4966651;28;20108;-86
2023/09/28 09:35:55;;;;;;;0.60;0.60;;;21.00;99.90;;;;;;4981864;28;20050;-85
2023/09/28 09:38:43;;;;;;;0.70;0.70;;;21.00;99.90;;;;;;4984096;28;20399;-94
2023/09/28 09:41:08;;;;;;;0.70;0.70;;;21.10;99.90;;;;;;4985006;28;20124;-84
2023/09/28 09:43:35;;;;;;;0.60;0.60;;;21.20;99.90;;;;;;4977507;28;20145;-86
2023/09/28 09:46:11;;;;;;;0.70;0.70;;;21.10;99.90;;;;;;5001748;28;20080;-88
2023/09/28 09:48:44;;;;;;;0.60;0.60;;;20.90;99.90;;;;;;4984049;28;20125;-88
2023/09/28 09:51:14;;;;;;;0.70;0.70;;;21.00;99.90;;;;;;4964688;28;20468;-87
2023/09/28 09:53:44;;;;;;;0.70;0.70;;;20.90;99.90;;;;;;4982558;28;20664;-89
2023/09/28 09:56:11;;;;;;;0.85;0.85;;;21.00;99.90;;;;;;4986945;28;20054;-87
2023/09/28 09:58:48;;;;;;;0.60;0.60;;;21.10;99.90;;;;;;4983841;28;20038;-83
2023/09/28 10:01:19;;;;;;;0.73;0.73;;;21.50;99.90;;;;;;4984770;28;20496;-91
2023/09/28 10:03:51;;;;;;;0.70;0.70;;;21.40;99.90;;;;;;4988813;28;20053;-84
2023/09/28 10:06:22;;;;;;;0.80;0.80;;;21.40;99.90;;;;;;4971146;28;20117;-84
2023/09/28 10:08:54;;;;;;;0.73;0.73;;;21.30;99.90;;;;;;4990726;28;20030;-88
2023/09/28 10:11:21;;;;;;;0.70;0.70;;;21.30;99.90;;;;;;4969744;28;20056;-87
2023/09/28 10:13:49;;;;;;;0.65;0.65;;;21.70;99.90;;;;;;4994282;28;20069;-89
2023/09/28 10:16:19;;;;;;;0.60;0.60;;;22.00;99.90;;;;;;4994060;28;20046;-88
2023/09/28 10:18:50;;;;;;;0.70;0.70;;;22.00;99.90;;;;;;4967773;28;20121;-84
2023/09/28 10:21:16;;;;;;;0.65;0.65;;;21.70;99.90;;;;;;4982897;28;20046;-88
2023/09/28 10:23:42;;;;;;;0.70;0.70;;;21.90;99.90;;;;;;4981850;28;20050;-84
2023/09/28 10:26:15;;;;;;;0.70;0.70;;;22.00;99.90;;;;;;4984797;28;20104;-90
2023/09/28 10:29:02;;;;;;;0.70;0.70;;;22.20;99.90;;;;;;4981726;28;20097;-86
2023/09/28 10:31:39;;;;;;;0.70;0.70;;;22.00;99.90;;;;;;4967759;28;20124;-89
2023/09/28 10:34:06;;;;;;;0.57;0.57;;;22.00;99.90;;;;;;4984359;28;20467;-87
2023/09/28 10:36:34;;;;;;;0.70;0.70;;;22.20;99.90;;;;;;4982410;28;20049;-85
2023/09/28 10:39:19;;;;;;;0.70;0.70;;;22.30;99.90;;;;;;4983857;28;20137;-87
2023/09/28 10:42:03;;;;;;;0.70;0.70;;;22.00;99.90;;;;;;4982982;28;20129;-89
2023/09/28 10:44:31;;;;;;;0.80;0.80;;;21.50;99.90;;;;;;4982965;28;20080;-82
2023/09/28 10:46:57;;;;;;;0.70;0.70;;;22.00;99.90;;;;;;4984687;28;20054;-85
2023/09/28 10:49:23;;;;;;;0.77;0.77;;;22.00;99.90;;;;;;4998608;28;20080;-86
2023/09/28 10:51:53;;;;;;;0.70;0.70;;;22.20;99.90;;;;;;4982928;28;20550;-83
2023/09/28 10:54:24;;;;;;;0.73;0.73;;;22.60;99.90;;;;;;4986104;28;20050;-89
2023/09/28 10:56:50;;;;;;;0.90;0.90;;;22.10;99.90;;;;;;4983330;28;20050;-84
2023/09/28 10:59:18;;;;;;;0.88;0.88;;;21.90;99.90;;;;;;4966644;28;20053;-83
2023/09/28 11:01:45;;;;;;;0.90;0.90;;;21.60;99.90;;;;;;4981768;28;20442;-83
2023/09/28 11:04:12;;;;;;;1.08;1.08;;;21.50;99.90;;;;;;4984599;28;20069;-86
2023/09/28 11:06:43;;;;;;;1.00;1.00;;;21.60;99.90;;;;;;4962547;28;20090;-83
2023/09/28 11:09:09;;;;;;;0.90;0.90;;;21.50;99.90;;;;;;4979491;28;20673;-87
2023/09/28 11:11:39;;;;;;;0.80;0.80;;;21.60;99.90;;;;;;4981787;28;20511;-82
2023/09/28 11:14:05;;;;;;;1.00;1.00;;;22.00;99.90;;;;;;4982867;28;20058;-86
2023/09/28 11:16:38;;;;;;;0.90;0.90;;;22.00;99.90;;;;;;4980900;28;20138;-85
2023/09/28 11:19:04;;;;;;;1.00;1.00;;;21.80;99.90;;;;;;4980465;28;20058;-85
2023/09/28 11:21:31;;;;;;;0.82;0.82;;;21.80;99.90;;;;;;4980265;28;20051;-83
2023/09/28 11:23:57;;;;;;;0.90;0.90;;;22.30;99.90;;;;;;4983004;28;20043;-81
2023/09/28 11:26:24;;;;;;;0.90;0.90;;;22.60;99.90;;;;;;4982448;28;20383;-86
2023/09/28 11:28:51;;;;;;;0.85;0.85;;;23.00;99.90;;;;;;4979946;28;20049;-84
2023/09/28 11:31:21;;;;;;;0.85;0.85;;;23.40;99.90;;;;;;4981270;28;20042;-90
2023/09/28 11:33:55;;;;;;;0.90;0.90;;;23.40;99.90;;;;;;4983940;28;20046;-88
2023/09/28 11:36:28;;;;;;;0.80;0.80;;;23.30;99.90;;;;;;4999853;28;20042;-84
2023/09/28 11:38:55;;;;;;;0.82;0.82;;;23.30;99.90;;;;;;4994322;28;20066;-87
2023/09/28 11:41:23;;;;;;;0.85;0.85;;;23.30;99.90;;;;;;4985082;28;20042;-87
2023/09/28 11:43:58;;;;;;;0.90;0.90;;;23.50;99.90;;;;;;4969455;28;20035;-86
2023/09/28 11:46:28;;;;;;;0.88;0.88;;;23.20;99.90;;;;;;4983482;28;20053;-87
2023/09/28 11:49:14;;;;;;;0.95;0.95;;;23.40;99.90;;;;;;4967351;28;20053;-93
2023/09/28 11:51:44;;;;;;;1.17;1.17;;;23.50;99.90;;;;;;4988647;28;20054;-91
2023/09/28 11:54:14;;;;;;;1.15;1.15;;;23.00;99.90;;;;;;5000475;28;20088;-94
2023/09/28 11:56:43;;;;;;;1.10;1.10;;;22.40;99.90;;;;;;4996589;28;20070;-91
2023/09/28 11:59:15;;;;;;;1.10;1.10;;;22.20;99.90;;;;;;4993988;28;20049;-84
2023/09/28 12:01:44;;;;;;;1.27;1.27;;;22.00;99.90;;;;;;4974154;28;20050;-85
2023/09/28 12:04:11;;;;;;;1.65;1.55;;;22.30;99.90;;;;;;4983869;28;20046;-85
2023/09/28 12:06:40;;;;;;;1.00;1.00;;;22.50;99.90;;;;;;4985767;28;20046;-87
2023/09/28 12:09:06;;;;;;;1.00;1.00;;;22.90;99.90;;;;;;4971668;28;20058;-85
2023/09/28 12:11:33;;;;;;;1.00;1.00;;;23.20;99.90;;;;;;4962770;28;20073;-93
2023/09/28 12:14:02;;;;;;;1.00;1.00;;;23.40;99.90;;;;;;4982160;28;20057;-87
2023/09/28 12:16:30;;;;;;;1.25;1.25;;;23.40;99.90;;;;;;4986224;28;20394;-85
2023/09/28 12:18:56;;;;;;;1.25;1.25;;;23.40;99.90;;;;;;4983990;28;20049;-88
2023/09/28 12:21:22;;;;;;;1.17;1.17;;;23.00;99.90;;;;;;4990827;28;20042;-93
2023/09/28 12:23:51;;;;;;;0.88;0.88;;;23.30;99.90;;;;;;4986778;28;20050;-89
2023/09/28 12:26:19;;;;;;;0.90;0.90;;;23.40;99.90;;;;;;4987547;28;20121;-87
2023/09/28 12:28:45;;;;;;;0.90;0.90;;;23.50;99.90;;;;;;4982033;28;20048;-85
2023/09/28 12:31:12;;;;;;;0.88;0.88;;;23.60;99.90;;;;;;4987735;28;20057;-84
2023/09/28 12:33:38;;;;;;;0.80;0.80;;;23.60;99.90;;;;;;4986112;28;20081;-86
2023/09/28 12:36:05;;;;;;;0.70;0.70;;;23.80;99.90;;;;;;4985351;28;20052;-83
2023/09/28 12:38:31;;;;;;;0.73;0.73;;;23.40;99.90;;;;;;4984085;28;20065;-89
2023/09/28 12:40:57;;;;;;;0.70;0.70;;;22.80;99.90;;;;;;4984211;28;20053;-85
2023/09/28 12:43:22;;;;;;;0.95;0.95;;;22.60;99.90;;;;;;4983678;28;20041;-85
2023/09/28 12:45:51;;;;;;;0.93;0.93;;;22.50;99.90;;;;;;4981418;28;20592;-85
2023/09/28 12:48:20;;;;;;;0.80;0.80;;;22.80;99.90;;;;;;4983337;28;20049;-85
2023/09/28 12:50:48;;;;;;;0.85;0.85;;;22.90;99.90;;;;;;4970404;28;20065;-86